Airport ID:KJWN
Update Time (UTC):25/04/2019 16:42
Wind Speed (Knots):9
Wind Direction (Magnetic):170
Temperature (°C):23
Dew Point (°C):17
Humidity (%):69
Altimeter (inHg):29.76
Density Altitude (Feet):2000
Visibility (Miles):10+
Clouds (Hundreds of feet):SCT026
Present Weather:
METAR:METAR KJWN 251640Z AUTO 18012G17KT 10SM FEW025 SCT029 23/17 A2976 RMK A01

The data displayed is for advisory purposes only and is not to be used for flight planning or operations.

This page is not automatically refreshed. Reload the page to see current data.